Time;durP1;ratioP1;P1;durP2;ratioP2;P2;SDS_P1;SDS_P2;PMS_P1;PMS_P2;Temp;Humidity;BMP_temperature;BMP_pressure;BME280_temperature;BME280_humidity;BME280_pressure;Samples;Min_cycle;Max_cycle;Signal;HPM_P1;HPM_P2
2022/05/28 00:01:14;;;;;;;15.38;3.55;;;13.20;99.90;;;;;;5056901;28;25096;-59
2022/05/28 00:03:40;;;;;;;10.95;2.90;;;13.20;99.90;;;;;;5055086;28;25065;-60
2022/05/28 00:06:11;;;;;;;12.73;3.40;;;13.10;99.90;;;;;;5057834;28;25060;-61
2022/05/28 00:08:37;;;;;;;15.98;3.47;;;13.10;99.90;;;;;;5058374;28;25064;-60
2022/05/28 00:11:13;;;;;;;20.90;4.20;;;13.10;99.90;;;;;;5059153;28;24998;-58
2022/05/28 00:13:39;;;;;;;16.50;3.40;;;13.10;99.90;;;;;;5055038;28;25060;-59
2022/05/28 00:16:05;;;;;;;16.42;3.13;;;13.10;99.90;;;;;;5058637;28;25077;-61
2022/05/28 00:18:31;;;;;;;13.70;2.60;;;13.20;99.90;;;;;;5057982;28;25147;-60
2022/05/28 00:20:57;;;;;;;9.65;2.80;;;13.20;99.90;;;;;;5057046;28;25053;-60
2022/05/28 00:23:23;;;;;;;11.70;3.70;;;13.20;99.90;;;;;;5056959;28;25048;-60
2022/05/28 00:25:49;;;;;;;15.77;3.38;;;13.30;99.90;;;;;;5056765;28;25058;-59
2022/05/28 00:28:15;;;;;;;13.55;2.53;;;13.30;99.90;;;;;;5057392;28;25079;-60
2022/05/28 00:30:40;;;;;;;10.52;2.80;;;13.20;99.90;;;;;;5054208;28;25088;-58
2022/05/28 00:33:06;;;;;;;13.75;2.97;;;13.20;99.90;;;;;;5054688;28;25061;-60
2022/05/28 00:35:32;;;;;;;15.95;3.95;;;13.20;99.90;;;;;;5056782;28;25077;-63
2022/05/28 00:37:58;;;;;;;11.48;2.55;;;13.30;99.90;;;;;;5057473;28;25064;-62
2022/05/28 00:40:26;;;;;;;17.35;3.33;;;13.30;99.90;;;;;;5056847;28;25125;-60
2022/05/28 00:42:56;;;;;;;9.90;2.78;;;13.30;99.90;;;;;;5055729;28;25067;-61
2022/05/28 00:45:22;;;;;;;13.77;3.05;;;13.40;99.90;;;;;;5052562;28;25122;-61
2022/05/28 00:47:51;;;;;;;12.70;3.45;;;13.40;99.90;;;;;;5055610;28;25058;-60
2022/05/28 00:50:18;;;;;;;12.50;2.63;;;13.40;99.90;;;;;;5056850;28;25069;-61
2022/05/28 00:52:44;;;;;;;10.63;3.05;;;13.40;99.90;;;;;;5055950;28;25047;-63
2022/05/28 00:55:11;;;;;;;9.98;2.53;;;13.50;99.90;;;;;;5054253;28;25149;-64
2022/05/28 00:57:40;;;;;;;10.98;2.45;;;13.50;99.90;;;;;;5051171;28;25165;-63
2022/05/28 01:00:08;;;;;;;16.20;2.92;;;13.50;99.90;;;;;;5055565;28;25064;-62
2022/05/28 01:02:48;;;;;;;15.32;3.10;;;13.40;99.90;;;;;;5052275;28;25064;-63
2022/05/28 01:05:20;;;;;;;14.57;3.08;;;13.40;99.90;;;;;;5055289;28;25103;-61
2022/05/28 01:07:57;;;;;;;17.20;3.50;;;13.40;99.90;;;;;;5054182;28;25077;-62
2022/05/28 01:10:38;;;;;;;16.80;2.33;;;13.30;99.90;;;;;;5054332;28;25062;-62
2022/05/28 01:13:14;;;;;;;13.68;2.75;;;13.30;99.90;;;;;;5056033;28;25051;-61
2022/05/28 01:16:05;;;;;;;12.70;2.25;;;13.40;99.90;;;;;;5055859;28;25143;-61
2022/05/28 01:18:52;;;;;;;11.13;2.50;;;13.30;99.90;;;;;;5056402;28;25071;-64
2022/05/28 01:21:20;;;;;;;15.88;2.67;;;13.30;99.90;;;;;;5060740;28;25128;-61
2022/05/28 01:24:10;;;;;;;14.63;2.80;;;13.20;99.90;;;;;;5057312;28;25129;-62
2022/05/28 01:26:45;;;;;;;10.20;2.72;;;13.20;99.90;;;;;;5048548;28;25081;-62
2022/05/28 01:29:13;;;;;;;12.00;3.17;;;13.20;99.90;;;;;;5052512;28;25062;-60
2022/05/28 01:31:39;;;;;;;9.98;3.28;;;13.20;99.90;;;;;;5050907;28;25056;-62
2022/05/28 01:34:08;;;;;;;13.07;2.83;;;13.20;99.90;;;;;;5054669;28;25055;-61
2022/05/28 01:36:36;;;;;;;16.05;2.92;;;13.20;99.90;;;;;;5052955;28;25079;-61
2022/05/28 01:39:04;;;;;;;10.05;2.65;;;13.20;99.90;;;;;;5050985;28;25057;-61
2022/05/28 01:41:31;;;;;;;16.10;3.08;;;13.10;99.90;;;;;;5053006;28;25056;-62
2022/05/28 01:43:58;;;;;;;16.70;3.38;;;13.10;99.90;;;;;;5055184;28;25110;-61
2022/05/28 01:46:28;;;;;;;14.65;3.05;;;13.10;99.90;;;;;;5055976;28;25100;-61
2022/05/28 01:48:55;;;;;;;10.75;2.80;;;13.10;99.90;;;;;;5052906;28;25064;-58
2022/05/28 01:51:24;;;;;;;17.38;2.55;;;13.10;99.90;;;;;;5059635;28;25085;-61
2022/05/28 01:54:07;;;;;;;10.05;2.90;;;13.00;99.90;;;;;;5055010;28;25137;-59
2022/05/28 01:56:33;;;;;;;12.80;3.13;;;13.00;99.90;;;;;;5052849;28;25076;-59
2022/05/28 01:58:59;;;;;;;14.52;3.10;;;13.00;99.90;;;;;;5055005;28;25097;-63
2022/05/28 02:01:25;;;;;;;19.83;2.95;;;13.00;99.90;;;;;;5054590;28;25187;-62
2022/05/28 02:03:55;;;;;;;20.58;3.20;;;13.00;99.90;;;;;;5052055;28;25053;-63
2022/05/28 02:06:20;;;;;;;10.05;2.33;;;13.00;99.90;;;;;;5049027;28;25155;-61
2022/05/28 02:08:49;;;;;;;15.10;3.00;;;13.00;99.90;;;;;;5050342;28;25099;-61
2022/05/28 02:11:21;;;;;;;15.02;3.45;;;12.90;99.90;;;;;;5051841;28;25079;-60
2022/05/28 02:13:53;;;;;;;18.73;3.00;;;12.90;99.90;;;;;;5048510;28;25074;-62
2022/05/28 02:16:40;;;;;;;22.23;3.58;;;12.80;99.90;;;;;;5051564;28;25054;-62
2022/05/28 02:19:12;;;;;;;16.52;3.30;;;12.80;99.90;;;;;;5048849;28;24995;-61
2022/05/28 02:21:47;;;;;;;21.42;4.75;;;12.80;99.90;;;;;;5051093;28;25079;-63
2022/05/28 02:24:22;;;;;;;12.15;2.70;;;12.70;99.90;;;;;;5053289;28;25072;-61
2022/05/28 02:26:55;;;;;;;13.18;2.97;;;12.80;99.90;;;;;;5053051;28;25156;-61
2022/05/28 02:29:21;;;;;;;19.73;3.25;;;12.70;99.90;;;;;;5053124;28;25069;-62
2022/05/28 02:31:48;;;;;;;16.65;3.33;;;12.80;99.90;;;;;;5054856;28;25062;-63
2022/05/28 02:34:15;;;;;;;17.60;3.95;;;12.80;99.90;;;;;;5052053;28;25066;-63
2022/05/28 02:36:44;;;;;;;29.27;4.32;;;12.70;99.90;;;;;;5051559;28;25126;-62
2022/05/28 02:39:10;;;;;;;12.90;2.70;;;12.70;99.90;;;;;;5053119;28;25072;-62
2022/05/28 02:41:36;;;;;;;26.73;4.05;;;12.60;99.90;;;;;;5052653;28;25126;-62
2022/05/28 02:44:02;;;;;;;19.48;3.83;;;12.50;99.90;;;;;;5054381;28;25071;-62
2022/05/28 02:46:28;;;;;;;17.15;3.22;;;12.50;99.90;;;;;;5053523;28;25135;-62
2022/05/28 02:48:53;;;;;;;22.55;2.92;;;12.50;99.90;;;;;;5054329;28;25095;-61
2022/05/28 02:51:21;;;;;;;16.23;3.28;;;12.40;99.90;;;;;;5052593;28;25104;-62
2022/05/28 02:53:48;;;;;;;18.77;3.78;;;12.40;99.90;;;;;;5052627;28;25140;-62
2022/05/28 02:56:14;;;;;;;17.98;3.17;;;12.40;99.90;;;;;;5049336;28;25065;-62
2022/05/28 02:58:40;;;;;;;19.33;3.38;;;12.40;99.90;;;;;;5051573;28;25127;-63
2022/05/28 03:01:18;;;;;;;18.33;3.33;;;12.40;99.90;;;;;;5054092;28;25045;-62
2022/05/28 03:03:44;;;;;;;16.27;3.55;;;12.40;99.90;;;;;;5056429;28;25075;-62
2022/05/28 03:06:09;;;;;;;19.90;3.45;;;12.40;99.90;;;;;;5058632;28;25129;-62
2022/05/28 03:08:35;;;;;;;15.77;2.97;;;12.30;99.90;;;;;;5056342;28;25083;-64
2022/05/28 03:11:00;;;;;;;20.02;3.88;;;12.40;99.90;;;;;;5055728;28;25079;-61
2022/05/28 03:13:26;;;;;;;20.52;3.67;;;12.40;99.90;;;;;;5053321;28;25067;-63
2022/05/28 03:15:51;;;;;;;20.00;3.83;;;12.40;99.90;;;;;;5056955;28;25078;-63
2022/05/28 03:18:17;;;;;;;17.65;2.92;;;12.40;99.90;;;;;;5056707;28;25082;-62
2022/05/28 03:20:43;;;;;;;14.07;3.13;;;12.40;99.90;;;;;;5057570;28;25094;-63
2022/05/28 03:23:08;;;;;;;20.90;3.13;;;12.30;99.90;;;;;;5054297;28;25069;-62
2022/05/28 03:25:34;;;;;;;20.73;3.22;;;12.30;99.90;;;;;;5056787;28;25067;-62
2022/05/28 03:27:59;;;;;;;19.02;2.97;;;12.30;99.90;;;;;;5056107;28;25073;-61
2022/05/28 03:30:25;;;;;;;18.33;2.85;;;12.30;99.90;;;;;;5056326;28;25129;-62
2022/05/28 03:32:51;;;;;;;16.92;3.08;;;12.30;99.90;;;;;;5056554;28;25065;-62
2022/05/28 03:35:16;;;;;;;15.77;2.75;;;12.30;99.90;;;;;;5056013;28;25061;-62
2022/05/28 03:37:42;;;;;;;14.02;2.80;;;12.30;99.90;;;;;;5057222;28;25058;-62
2022/05/28 03:40:08;;;;;;;13.50;2.75;;;12.30;99.90;;;;;;5052799;28;25076;-61
2022/05/28 03:42:34;;;;;;;13.95;2.58;;;12.30;99.90;;;;;;5055993;28;25061;-63
2022/05/28 03:44:59;;;;;;;15.40;3.55;;;12.30;99.90;;;;;;5055870;28;25058;-60
2022/05/28 03:47:25;;;;;;;12.07;2.70;;;12.30;99.90;;;;;;5056246;28;25067;-59
2022/05/28 03:49:51;;;;;;;12.52;2.45;;;12.30;99.90;;;;;;5062209;28;25094;-59
2022/05/28 03:52:16;;;;;;;20.15;4.32;;;12.30;99.90;;;;;;5055743;28;25072;-60
2022/05/28 03:54:45;;;;;;;22.67;3.55;;;12.30;99.90;;;;;;5051837;28;25063;-59
2022/05/28 03:57:31;;;;;;;14.50;2.90;;;12.30;99.90;;;;;;5053408;28;25069;-61
2022/05/28 03:59:58;;;;;;;14.88;3.35;;;12.30;99.90;;;;;;5055390;28;25072;-61
2022/05/28 04:02:24;;;;;;;19.45;2.50;;;12.30;99.90;;;;;;5054844;28;25075;-62
2022/05/28 04:04:50;;;;;;;11.65;2.17;;;12.30;99.90;;;;;;5053274;28;25110;-62
2022/05/28 04:07:16;;;;;;;10.40;2.53;;;12.30;99.90;;;;;;5055456;28;25148;-63
2022/05/28 04:09:43;;;;;;;12.30;2.20;;;12.30;99.90;;;;;;5054465;28;25067;-61
2022/05/28 04:12:09;;;;;;;17.75;3.55;;;12.30;99.90;;;;;;5053590;28;25160;-62
2022/05/28 04:14:35;;;;;;;10.00;2.83;;;12.30;99.90;;;;;;5054232;28;25065;-62
2022/05/28 04:17:01;;;;;;;15.95;2.55;;;12.30;99.90;;;;;;5054722;28;25059;-62
2022/05/28 04:19:26;;;;;;;11.98;2.33;;;12.30;99.90;;;;;;5054411;28;25069;-62
2022/05/28 04:21:52;;;;;;;12.18;2.63;;;12.30;99.90;;;;;;5053440;28;25117;-63
2022/05/28 04:24:17;;;;;;;15.05;2.30;;;12.30;99.90;;;;;;5054489;28;25090;-62
2022/05/28 04:26:43;;;;;;;10.35;2.00;;;12.20;99.90;;;;;;5054849;28;25059;-60
2022/05/28 04:29:09;;;;;;;7.45;2.22;;;12.30;99.90;;;;;;5053567;28;25113;-61
2022/05/28 04:31:35;;;;;;;14.20;3.17;;;12.30;99.90;;;;;;5052548;28;25105;-60
2022/05/28 04:34:00;;;;;;;7.85;2.03;;;12.30;99.90;;;;;;5051898;28;25069;-61
2022/05/28 04:36:26;;;;;;;10.95;2.47;;;12.30;99.90;;;;;;5053796;28;25139;-63
2022/05/28 04:38:51;;;;;;;10.77;1.92;;;12.30;99.90;;;;;;5053129;28;25135;-62
2022/05/28 04:41:17;;;;;;;7.13;1.60;;;12.30;99.90;;;;;;5054613;28;25136;-62
2022/05/28 04:43:43;;;;;;;8.52;1.60;;;12.30;99.90;;;;;;5055606;28;25058;-62
2022/05/28 04:46:08;;;;;;;14.20;1.80;;;12.30;99.90;;;;;;5058114;28;25082;-62
2022/05/28 04:48:34;;;;;;;16.58;2.42;;;12.30;99.90;;;;;;5056699;28;25062;-61
2022/05/28 04:51:00;;;;;;;10.45;1.80;;;12.30;99.90;;;;;;5054450;28;25073;-62
2022/05/28 04:53:26;;;;;;;9.50;2.00;;;12.30;99.90;;;;;;5014696;28;1123283;-61
2022/05/28 04:55:51;;;;;;;7.65;1.52;;;12.30;99.90;;;;;;5054382;28;25089;-61
2022/05/28 04:58:17;;;;;;;11.25;2.50;;;12.30;99.90;;;;;;5054331;28;25097;-62
2022/05/28 05:00:45;;;;;;;8.00;1.85;;;12.30;99.90;;;;;;5053607;28;25141;-62
2022/05/28 05:03:10;;;;;;;6.03;1.80;;;12.40;99.90;;;;;;5054938;28;25057;-61
2022/05/28 05:05:37;;;;;;;9.40;1.63;;;12.40;99.90;;;;;;5056039;28;25139;-59
2022/05/28 05:08:03;;;;;;;6.45;1.55;;;12.50;99.90;;;;;;5053853;28;25114;-58
2022/05/28 05:10:28;;;;;;;8.32;1.73;;;12.50;99.90;;;;;;5052623;28;25061;-59
2022/05/28 05:12:54;;;;;;;9.52;1.70;;;12.60;99.90;;;;;;5053471;28;25061;-59
2022/05/28 05:15:19;;;;;;;8.80;1.45;;;12.60;99.90;;;;;;5052622;28;25110;-58
2022/05/28 05:17:45;;;;;;;9.23;1.77;;;12.60;99.90;;;;;;5053580;28;25054;-60
2022/05/28 05:20:12;;;;;;;6.15;1.52;;;12.60;99.90;;;;;;5056470;28;25086;-58
2022/05/28 05:22:38;;;;;;;11.27;1.70;;;12.60;99.90;;;;;;5052488;28;25057;-62
2022/05/28 05:25:05;;;;;;;11.85;1.80;;;12.70;99.90;;;;;;5053104;28;25052;-61
2022/05/28 05:27:30;;;;;;;11.13;1.98;;;12.80;99.90;;;;;;5051429;28;25148;-61
2022/05/28 05:29:57;;;;;;;9.40;1.48;;;12.70;99.90;;;;;;5056750;28;25080;-62
2022/05/28 05:32:23;;;;;;;9.43;1.58;;;12.70;99.90;;;;;;5060163;28;25060;-62
2022/05/28 05:34:49;;;;;;;10.15;1.73;;;12.80;99.90;;;;;;5054177;28;25059;-60
2022/05/28 05:37:14;;;;;;;9.32;2.60;;;12.90;99.90;;;;;;5050053;28;25109;-61
2022/05/28 05:39:40;;;;;;;5.88;1.25;;;12.90;99.90;;;;;;5053037;28;25096;-62
2022/05/28 05:42:06;;;;;;;8.43;1.52;;;12.90;99.90;;;;;;5055066;28;25085;-60
2022/05/28 05:44:31;;;;;;;11.38;1.80;;;13.00;99.90;;;;;;5051657;28;25082;-62
2022/05/28 05:46:57;;;;;;;9.50;1.65;;;13.00;99.90;;;;;;5054603;28;25070;-62
2022/05/28 05:49:23;;;;;;;7.25;1.83;;;13.10;99.90;;;;;;5051582;28;25066;-61
2022/05/28 05:51:48;;;;;;;4.88;1.73;;;13.20;99.90;;;;;;5053733;28;25132;-60
2022/05/28 05:54:17;;;;;;;14.73;2.67;;;13.20;99.90;;;;;;5051954;28;25067;-59
2022/05/28 05:56:43;;;;;;;6.82;1.90;;;13.10;99.90;;;;;;5052415;28;25108;-60
2022/05/28 05:59:08;;;;;;;12.38;2.42;;;13.20;99.90;;;;;;5052475;28;25084;-62
2022/05/28 06:01:34;;;;;;;10.85;1.83;;;13.30;99.90;;;;;;5054116;28;25082;-62
2022/05/28 06:03:59;;;;;;;12.00;1.80;;;13.20;99.90;;;;;;5051772;28;25059;-61
2022/05/28 06:06:25;;;;;;;11.27;2.10;;;13.40;99.90;;;;;;5051804;28;25065;-61
2022/05/28 06:08:51;;;;;;;11.90;2.03;;;13.70;99.90;;;;;;5053998;28;25060;-61
2022/05/28 06:11:17;;;;;;;9.93;1.80;;;13.90;99.90;;;;;;5051000;28;25138;-61
2022/05/28 06:13:43;;;;;;;7.97;1.88;;;13.80;99.90;;;;;;5053687;28;25070;-61
2022/05/28 06:16:09;;;;;;;9.05;2.00;;;13.60;99.90;;;;;;5053312;28;25069;-62
2022/05/28 06:18:35;;;;;;;12.30;2.30;;;13.60;99.90;;;;;;5048496;28;25068;-61
2022/05/28 06:21:02;;;;;;;9.85;1.80;;;13.60;99.90;;;;;;5052977;28;25045;-60
2022/05/28 06:23:28;;;;;;;9.48;2.20;;;13.80;99.90;;;;;;5050928;28;25098;-60
2022/05/28 06:25:54;;;;;;;6.95;1.98;;;13.80;99.90;;;;;;5053234;28;25073;-61
2022/05/28 06:28:20;;;;;;;7.78;2.30;;;13.70;99.90;;;;;;5054111;28;25058;-59
2022/05/28 06:30:49;;;;;;;8.23;1.48;;;13.70;99.90;;;;;;5053133;28;25056;-61
2022/05/28 06:33:16;;;;;;;10.40;1.92;;;13.80;99.90;;;;;;5051331;28;24966;-62
2022/05/28 06:35:42;;;;;;;8.70;1.45;;;14.00;99.90;;;;;;5051209;28;25056;-61
2022/05/28 06:38:07;;;;;;;12.27;2.40;;;14.00;99.90;;;;;;5052107;28;25130;-60
2022/05/28 06:40:35;;;;;;;10.60;2.17;;;14.10;99.90;;;;;;5059020;28;25072;-62
2022/05/28 06:43:01;;;;;;;11.18;2.33;;;14.00;99.90;;;;;;5054017;28;25135;-62
2022/05/28 06:45:27;;;;;;;6.97;1.63;;;13.90;99.00;;;;;;5054305;28;25097;-61
2022/05/28 06:47:52;;;;;;;10.98;1.85;;;13.80;99.40;;;;;;5045481;28;25082;-62
2022/05/28 06:53:08;;;;;;;6.63;1.23;;;13.70;99.90;;;;;;5048386;28;25079;-62
2022/05/28 06:55:37;;;;;;;8.27;2.22;;;14.20;99.90;;;;;;5047482;28;25113;-62
2022/05/28 06:58:04;;;;;;;9.50;2.10;;;14.20;99.20;;;;;;5049721;28;25166;-61
2022/05/28 07:00:30;;;;;;;15.45;2.50;;;14.10;99.90;;;;;;5047938;28;25069;-60
2022/05/28 07:02:56;;;;;;;9.40;1.58;;;14.10;99.90;;;;;;5047086;28;25060;-60
2022/05/28 07:05:22;;;;;;;14.40;2.08;;;14.30;99.90;;;;;;5047330;28;25133;-63
2022/05/28 07:07:47;;;;;;;7.82;2.50;;;14.40;99.90;;;;;;5047175;28;25108;-61
2022/05/28 07:10:13;;;;;;;6.72;1.73;;;14.80;98.80;;;;;;5049492;28;25140;-61
2022/05/28 07:12:38;;;;;;;15.50;2.00;;;14.90;98.40;;;;;;5047603;28;25087;-62
2022/05/28 07:15:05;;;;;;;7.35;1.80;;;14.60;99.10;;;;;;5049240;28;25043;-62
2022/05/28 07:17:31;;;;;;;8.10;1.95;;;14.50;99.20;;;;;;5048172;28;25106;-61
2022/05/28 07:19:57;;;;;;;11.20;2.05;;;13.90;99.90;;;;;;5048638;28;25098;-60
2022/05/28 07:22:22;;;;;;;15.05;1.80;;;13.40;99.90;;;;;;5048491;28;25079;-62
2022/05/28 07:24:48;;;;;;;13.73;1.80;;;13.50;99.90;;;;;;5050895;28;25087;-61
2022/05/28 07:27:14;;;;;;;8.90;1.80;;;13.90;99.90;;;;;;5050138;28;25112;-62
2022/05/28 07:29:40;;;;;;;10.73;1.50;;;14.30;99.90;;;;;;5051306;28;25049;-60
2022/05/28 07:32:07;;;;;;;11.68;1.88;;;14.10;99.90;;;;;;5049467;28;24685;-61
2022/05/28 07:34:33;;;;;;;10.88;2.00;;;13.60;99.90;;;;;;5051344;28;25128;-61
2022/05/28 07:36:59;;;;;;;10.23;2.47;;;13.30;99.90;;;;;;5052541;28;25063;-62
2022/05/28 07:39:25;;;;;;;7.30;1.88;;;13.20;99.90;;;;;;5058055;28;25062;-62
2022/05/28 07:41:51;;;;;;;9.57;1.75;;;13.50;99.90;;;;;;5053435;28;25074;-61
2022/05/28 07:44:17;;;;;;;6.80;1.75;;;13.90;99.90;;;;;;5050237;28;25151;-60
2022/05/28 07:46:43;;;;;;;11.82;1.77;;;14.50;99.90;;;;;;5056679;28;25124;-63
2022/05/28 07:49:09;;;;;;;9.55;1.60;;;14.60;99.90;;;;;;5051461;28;25084;-61
2022/05/28 07:51:38;;;;;;;8.93;1.92;;;14.50;99.90;;;;;;5051312;28;25078;-61
2022/05/28 07:54:05;;;;;;;6.88;2.15;;;14.90;99.90;;;;;;5049835;28;25058;-63
2022/05/28 07:56:32;;;;;;;4.75;1.58;;;15.00;97.90;;;;;;5047546;28;25059;-60
2022/05/28 07:58:59;;;;;;;11.57;2.25;;;14.70;99.20;;;;;;5051926;28;25065;-61
2022/05/28 08:01:28;;;;;;;14.25;2.10;;;14.80;96.90;;;;;;5052511;28;25129;-65
2022/05/28 08:03:55;;;;;;;9.75;2.50;;;15.00;96.70;;;;;;5053956;28;25147;-60
2022/05/28 08:06:21;;;;;;;8.77;1.80;;;15.20;96.50;;;;;;5054096;28;25076;-61
2022/05/28 08:08:48;;;;;;;8.82;1.90;;;15.20;96.60;;;;;;5052369;28;25109;-61
2022/05/28 08:11:14;;;;;;;8.40;2.00;;;15.40;94.40;;;;;;5049867;28;25080;-60
2022/05/28 08:13:40;;;;;;;11.93;2.95;;;15.50;94.40;;;;;;5049666;28;25066;-61
2022/05/28 08:16:06;;;;;;;8.10;1.95;;;15.30;93.40;;;;;;5052923;28;25127;-60
2022/05/28 08:18:31;;;;;;;9.43;2.13;;;15.30;94.50;;;;;;5054439;28;25067;-60
2022/05/28 08:23:43;;;;;;;5.90;1.52;;;15.20;93.60;;;;;;5054871;28;25158;-62
2022/05/28 08:26:11;;;;;;;10.52;1.75;;;15.30;91.30;;;;;;5053261;28;25097;-60
2022/05/28 08:28:38;;;;;;;10.40;1.50;;;15.30;91.10;;;;;;5051764;28;25060;-60
2022/05/28 08:31:04;;;;;;;6.35;1.70;;;15.50;91.60;;;;;;5052063;28;25057;-60
2022/05/28 08:33:30;;;;;;;12.32;2.20;;;15.40;91.30;;;;;;5046544;28;25140;-62
2022/05/28 08:35:56;;;;;;;9.95;2.03;;;15.40;89.30;;;;;;5047915;28;25084;-64
2022/05/28 08:38:23;;;;;;;12.60;2.47;;;15.30;85.80;;;;;;5052148;28;25057;-61
2022/05/28 08:41:12;;;;;;;10.15;2.35;;;15.20;89.80;;;;;;5052517;28;25087;-60
2022/05/28 08:44:00;;;;;;;6.05;1.63;;;15.20;88.00;;;;;;5051358;28;25053;-62
2022/05/28 08:46:30;;;;;;;7.90;1.50;;;15.40;86.90;;;;;;5052869;28;25138;-61
2022/05/28 08:48:57;;;;;;;11.27;2.05;;;15.90;87.70;;;;;;5055005;28;25070;-62
2022/05/28 08:51:43;;;;;;;8.48;1.90;;;16.10;81.60;;;;;;5050696;28;25120;-60
2022/05/28 08:54:37;;;;;;;13.55;2.30;;;16.40;80.70;;;;;;5052508;28;25139;-61
2022/05/28 08:57:09;;;;;;;8.98;1.38;;;16.00;81.90;;;;;;5054044;28;25065;-62
2022/05/28 08:59:42;;;;;;;11.55;2.13;;;15.70;83.20;;;;;;5055036;28;25135;-62
2022/05/28 09:02:16;;;;;;;7.15;1.65;;;15.90;75.70;;;;;;5054592;28;25110;-62
2022/05/28 09:04:44;;;;;;;13.98;1.88;;;16.00;76.80;;;;;;5053827;28;25061;-60
2022/05/28 09:07:12;;;;;;;4.25;1.25;;;15.90;68.60;;;;;;5054402;28;25126;-61
2022/05/28 09:09:44;;;;;;;7.13;1.60;;;15.70;69.70;;;;;;5055599;28;25141;-60
2022/05/28 09:12:25;;;;;;;13.88;1.65;;;15.60;77.80;;;;;;5055346;28;25139;-61
2022/05/28 09:14:50;;;;;;;13.50;1.92;;;15.40;82.70;;;;;;5054934;28;25071;-62
2022/05/28 09:17:38;;;;;;;6.47;1.65;;;15.90;78.70;;;;;;5061959;28;25060;-62
2022/05/28 09:20:09;;;;;;;12.18;2.42;;;16.30;70.30;;;;;;5056401;28;25056;-61
2022/05/28 09:22:35;;;;;;;8.25;1.50;;;16.40;70.80;;;;;;5056843;28;25104;-61
2022/05/28 09:25:01;;;;;;;7.78;1.50;;;16.00;71.20;;;;;;5052057;28;25164;-60
2022/05/28 09:27:45;;;;;;;10.77;1.65;;;15.80;72.10;;;;;;5052225;28;25101;-61
2022/05/28 09:30:43;;;;;;;9.73;1.85;;;15.30;74.40;;;;;;5055490;28;25096;-61
2022/05/28 09:33:28;;;;;;;9.70;2.10;;;15.10;77.00;;;;;;5053779;28;25062;-62
2022/05/28 09:36:02;;;;;;;9.15;1.95;;;14.80;83.00;;;;;;5054644;28;25068;-61
2022/05/28 09:38:46;;;;;;;14.30;2.70;;;15.00;86.20;;;;;;5053728;28;25112;-62
2022/05/28 09:41:19;;;;;;;11.82;2.70;;;15.10;87.10;;;;;;5052247;28;25086;-61
2022/05/28 09:44:02;;;;;;;11.82;2.28;;;15.60;86.50;;;;;;5051902;28;25071;-61
2022/05/28 09:46:43;;;;;;;10.25;2.40;;;15.10;87.30;;;;;;5051027;28;25077;-61
2022/05/28 09:49:21;;;;;;;9.55;1.98;;;14.60;91.90;;;;;;5052180;28;25069;-60
2022/05/28 09:52:08;;;;;;;12.30;3.08;;;14.80;92.40;;;;;;5052950;28;25060;-60
2022/05/28 09:54:35;;;;;;;15.60;2.85;;;14.80;92.50;;;;;;5053357;28;25134;-59
2022/05/28 09:57:10;;;;;;;15.13;2.55;;;15.00;91.20;;;;;;5053066;28;25057;-59
2022/05/28 09:59:52;;;;;;;8.13;2.15;;;15.40;91.00;;;;;;5053754;28;25059;-60
2022/05/28 10:02:26;;;;;;;8.43;1.70;;;15.40;91.70;;;;;;5049543;28;25109;-60
2022/05/28 10:05:16;;;;;;;9.85;2.15;;;14.90;90.40;;;;;;5049541;28;25061;-60
2022/05/28 10:07:49;;;;;;;11.07;2.35;;;15.60;90.80;;;;;;5050638;28;25094;-59
2022/05/28 10:10:22;;;;;;;14.10;1.95;;;15.90;87.60;;;;;;5050635;28;25096;-60
2022/05/28 10:12:49;;;;;;;8.23;1.75;;;16.00;87.20;;;;;;5047633;28;25071;-61
2022/05/28 10:15:17;;;;;;;15.50;2.28;;;15.60;85.60;;;;;;5051357;28;25065;-61
2022/05/28 10:17:53;;;;;;;8.50;2.00;;;15.00;90.40;;;;;;5051508;28;25070;-61
2022/05/28 10:20:21;;;;;;;8.43;1.92;;;15.40;90.80;;;;;;5052296;28;25048;-61
2022/05/28 10:22:49;;;;;;;11.68;2.10;;;15.50;86.80;;;;;;5052493;28;25075;-61
2022/05/28 10:25:41;;;;;;;8.63;1.70;;;14.90;84.10;;;;;;5050579;28;25144;-61
2022/05/28 10:28:08;;;;;;;8.30;2.22;;;15.50;81.90;;;;;;5052674;28;25115;-60
2022/05/28 10:30:37;;;;;;;10.38;1.60;;;15.70;78.20;;;;;;5064940;28;25062;-63
2022/05/28 10:33:13;;;;;;;6.82;2.17;;;15.40;76.30;;;;;;5064604;28;25054;-61
2022/05/28 10:35:39;;;;;;;9.68;1.80;;;15.40;76.80;;;;;;5049613;28;25078;-61
2022/05/28 10:38:14;;;;;;;11.95;1.77;;;15.40;77.60;;;;;;5052699;28;25092;-62
2022/05/28 10:40:57;;;;;;;5.45;1.67;;;14.80;77.30;;;;;;5052887;28;25075;-62
2022/05/28 10:43:31;;;;;;;8.82;1.70;;;15.20;70.60;;;;;;5051742;28;25112;-60
2022/05/28 10:46:12;;;;;;;8.23;2.20;;;15.60;72.30;;;;;;5050613;28;25108;-63
2022/05/28 10:48:59;;;;;;;7.97;2.40;;;15.40;73.50;;;;;;5052171;28;25065;-60
2022/05/28 10:52:02;;;;;;;6.25;1.58;;;15.70;75.10;;;;;;5051275;28;25074;-60
2022/05/28 10:54:49;;;;;;;10.90;2.50;;;15.60;67.30;;;;;;5051142;28;25136;-62
2022/05/28 10:57:40;;;;;;;7.68;1.75;;;16.10;57.70;;;;;;5050683;28;25081;-61
2022/05/28 11:00:13;;;;;;;6.72;1.80;;;16.40;59.30;;;;;;5058869;28;25078;-60
2022/05/28 11:02:53;;;;;;;11.35;1.77;;;16.30;60.00;;;;;;5055584;28;25052;-61
2022/05/28 11:05:37;;;;;;;9.77;1.58;;;15.90;66.00;;;;;;5050932;28;25049;-62
2022/05/28 11:08:41;;;;;;;10.07;1.90;;;15.90;66.60;;;;;;5052285;28;25050;-63
2022/05/28 11:11:23;;;;;;;7.60;1.52;;;16.60;63.60;;;;;;5050541;28;25098;-60
2022/05/28 11:13:51;;;;;;;10.25;1.98;;;15.60;64.30;;;;;;5051306;28;26179;-61
2022/05/28 11:16:39;;;;;;;8.27;1.50;;;15.40;63.40;;;;;;5050380;28;25068;-61
2022/05/28 11:19:39;;;;;;;8.80;1.55;;;15.40;60.30;;;;;;5046132;28;25103;-61
2022/05/28 11:22:26;;;;;;;8.88;1.75;;;15.70;63.70;;;;;;5055531;28;25089;-60
2022/05/28 11:25:05;;;;;;;9.98;1.90;;;15.80;68.30;;;;;;5053332;28;25063;-61
2022/05/28 11:27:45;;;;;;;6.00;2.45;;;15.90;71.00;;;;;;5056865;28;25067;-63
2022/05/28 11:30:23;;;;;;;7.90;1.50;;;16.20;67.40;;;;;;5056674;28;25084;-61
2022/05/28 11:33:37;;;;;;;6.93;1.67;;;16.50;62.70;;;;;;5051411;28;25083;-61
2022/05/28 11:36:09;;;;;;;8.48;1.65;;;16.10;63.50;;;;;;5015958;28;25152;-60
2022/05/28 11:38:46;;;;;;;13.23;2.30;;;15.70;63.00;;;;;;5045571;28;25081;-61
2022/05/28 11:41:34;;;;;;;7.28;1.55;;;15.70;63.20;;;;;;5051345;28;25149;-63
2022/05/28 11:44:14;;;;;;;7.25;1.52;;;16.10;58.20;;;;;;5049605;28;25054;-60
2022/05/28 11:46:42;;;;;;;5.57;1.23;;;15.70;54.30;;;;;;5051326;28;25161;-62
2022/05/28 11:52:28;;;;;;;7.05;2.47;;;16.20;52.30;;;;;;5053236;28;25053;-63
2022/05/28 11:55:10;;;;;;;12.30;2.42;;;16.00;57.70;;;;;;5051731;28;25091;-63
2022/05/28 11:57:45;;;;;;;5.90;1.75;;;16.00;57.90;;;;;;5051799;28;25110;-61
2022/05/28 12:00:13;;;;;;;8.13;1.67;;;16.70;52.30;;;;;;5055147;28;25097;-61
2022/05/28 12:02:43;;;;;;;10.90;2.50;;;16.70;55.40;;;;;;5054581;28;25062;-61
2022/05/28 12:05:58;;;;;;;8.40;1.92;;;16.20;59.30;;;;;;5052875;28;25141;-62
2022/05/28 12:08:35;;;;;;;7.60;1.65;;;15.30;65.60;;;;;;5046318;28;25160;-60
2022/05/28 12:11:20;;;;;;;3.65;1.30;;;15.70;61.70;;;;;;5054581;28;25063;-59
2022/05/28 12:13:56;;;;;;;6.63;1.60;;;16.20;54.20;;;;;;5055994;28;25101;-60
2022/05/28 12:16:22;;;;;;;8.05;1.55;;;16.20;59.70;;;;;;5051255;28;25115;-64
2022/05/28 12:19:20;;;;;;;8.63;1.95;;;16.50;57.60;;;;;;5055156;28;25150;-61
2022/05/28 12:21:46;;;;;;;9.02;2.08;;;15.60;57.50;;;;;;5053783;28;25100;-61
2022/05/28 12:24:27;;;;;;;8.30;1.73;;;15.90;67.10;;;;;;5052147;28;25085;-61
2022/05/28 12:32:17;;;;;;;6.20;1.50;;;16.60;52.40;;;;;;5051355;28;25054;-60
2022/05/28 12:34:59;;;;;;;6.47;1.63;;;16.20;62.80;;;;;;5049397;28;25058;-59
2022/05/28 12:37:34;;;;;;;7.38;1.20;;;16.10;62.40;;;;;;5052046;28;25061;-60
2022/05/28 12:40:36;;;;;;;7.28;1.50;;;15.90;61.10;;;;;;5051477;28;25077;-62
2022/05/28 12:43:26;;;;;;;7.82;1.55;;;16.30;58.00;;;;;;5055610;28;25101;-63
2022/05/28 12:45:53;;;;;;;8.07;1.95;;;16.60;55.00;;;;;;5054115;28;25062;-60
2022/05/28 12:48:27;;;;;;;6.82;1.83;;;16.60;56.80;;;;;;5050565;28;25077;-60
2022/05/28 12:51:20;;;;;;;10.63;2.67;;;16.80;56.10;;;;;;5055295;28;25066;-61
2022/05/28 12:53:54;;;;;;;6.57;1.42;;;16.50;55.30;;;;;;5050563;28;25082;-60
2022/05/28 12:56:35;;;;;;;9.75;1.73;;;15.60;58.50;;;;;;5049317;28;25066;-60
2022/05/28 12:59:29;;;;;;;13.25;2.10;;;15.40;65.90;;;;;;5047440;28;25063;-60
2022/05/28 13:02:03;;;;;;;7.80;1.80;;;15.30;66.40;;;;;;5049880;28;25147;-60
2022/05/28 13:04:46;;;;;;;10.23;2.15;;;15.50;63.10;;;;;;5051181;28;25125;-61
2022/05/28 13:07:21;;;;;;;;;;;15.30;65.30;;;;;;5047399;28;25154;-60
2022/05/28 13:09:50;;;;;;;8.60;1.80;;;15.20;66.90;;;;;;5051560;28;24062;-60
2022/05/28 13:12:29;;;;;;;5.20;1.70;;;15.20;69.70;;;;;;5053599;28;25066;-60
2022/05/28 13:15:14;;;;;;;11.52;2.65;;;15.30;72.00;;;;;;5055973;28;25052;-61